Time;durP1;ratioP1;P1;durP2;ratioP2;P2;SDS_P1;SDS_P2;PMS_P1;PMS_P2;Temp;Humidity;BMP_temperature;BMP_pressure;BME280_temperature;BME280_humidity;BME280_pressure;Samples;Min_cycle;Max_cycle;Signal;HPM_P1;HPM_P2
2021/03/07 00:00:22;;;;;;;10.23;6.90;;;;;;;-0.27;58.45;96161.91;5103197;28;20551;-70
2021/03/07 00:02:48;;;;;;;8.60;6.70;;;;;;;-0.30;58.02;96159.75;5104287;27;20038;-69
2021/03/07 00:05:15;;;;;;;9.60;7.03;;;;;;;-0.23;57.85;96172.78;5097301;27;20138;-70
2021/03/07 00:07:40;;;;;;;8.50;6.40;;;;;;;-0.30;58.62;96168.38;5104672;27;20115;-69
2021/03/07 00:10:09;;;;;;;11.02;7.28;;;;;;;-0.30;58.35;96172.81;5106317;28;20119;-69
2021/03/07 00:12:35;;;;;;;7.93;6.80;;;;;;;-0.25;58.53;96175.59;5105439;27;20039;-69
2021/03/07 00:15:00;;;;;;;9.23;7.10;;;;;;;-0.37;58.41;96159.75;5105650;28;20044;-69
2021/03/07 00:17:26;;;;;;;7.72;6.93;;;;;;;-0.38;59.18;96175.66;5094726;27;20385;-69
2021/03/07 00:19:51;;;;;;;8.05;7.20;;;;;;;-0.38;60.40;96167.81;5090074;28;20044;-69
2021/03/07 00:22:16;;;;;;;11.65;7.80;;;;;;;-0.41;59.43;96152.53;5104872;27;20024;-70
2021/03/07 00:24:42;;;;;;;9.18;7.28;;;;;;;-0.48;59.81;96147.38;5087005;28;20032;-69
2021/03/07 00:27:07;;;;;;;9.98;7.78;;;;;;;-0.37;60.26;96165.00;5100595;28;20054;-68
2021/03/07 00:29:32;;;;;;;12.55;7.68;;;;;;;-0.45;59.73;96164.44;5084246;27;20095;-69
2021/03/07 00:31:58;;;;;;;9.57;7.50;;;;;;;-0.59;61.59;96167.13;5077345;28;20070;-69
2021/03/07 00:34:24;;;;;;;8.85;7.88;;;;;;;-0.63;61.14;96150.25;5090406;27;20020;-69
2021/03/07 00:36:49;;;;;;;11.40;8.25;;;;;;;-0.52;60.66;96161.84;5093114;28;20230;-71
2021/03/07 00:39:15;;;;;;;11.80;8.07;;;;;;;-0.63;60.93;96137.19;5091525;27;20040;-69
2021/03/07 00:41:44;;;;;;;9.15;7.90;;;;;;;-0.53;61.08;96161.06;5098691;28;20119;-69
2021/03/07 00:44:11;;;;;;;15.00;8.52;;;;;;;-0.58;61.85;96158.25;5083772;27;20097;-69
2021/03/07 00:46:46;;;;;;;12.60;8.30;;;;;;;-0.52;61.29;96154.81;5069579;28;20048;-69
2021/03/07 00:49:15;;;;;;;10.77;8.07;;;;;;;-0.59;61.00;96148.03;5071911;28;20033;-70
2021/03/07 00:51:41;;;;;;;11.88;8.38;;;;;;;-0.73;60.98;96128.19;5069841;28;20048;-69
2021/03/07 00:54:06;;;;;;;11.35;8.38;;;;;;;-0.67;60.83;96151.66;5086719;28;20429;-69
2021/03/07 00:56:31;;;;;;;12.10;9.23;;;;;;;-0.70;61.40;96148.69;5091036;27;20036;-69
2021/03/07 00:58:57;;;;;;;11.38;8.70;;;;;;;-0.65;61.72;96157.50;5091008;27;20137;-69
2021/03/07 01:01:22;;;;;;;10.55;9.05;;;;;;;-0.62;61.98;96159.69;5088327;27;20032;-69
2021/03/07 01:03:48;;;;;;;10.93;8.15;;;;;;;-0.67;61.64;96158.72;5071586;28;20124;-69
2021/03/07 01:06:13;;;;;;;14.30;8.90;;;;;;;-0.72;61.43;96151.50;5087635;28;20043;-69
2021/03/07 01:08:39;;;;;;;26.27;10.05;;;;;;;-0.87;61.94;96132.66;5090582;27;20044;-69
2021/03/07 01:11:04;;;;;;;13.68;9.90;;;;;;;-0.95;62.73;96130.31;5083913;27;20072;-69
2021/03/07 01:13:29;;;;;;;13.18;10.10;;;;;;;-0.83;62.11;96139.88;5072862;28;20032;-70
2021/03/07 01:15:55;;;;;;;19.63;10.70;;;;;;;-0.89;62.71;96127.66;5092806;28;20049;-69
2021/03/07 01:18:20;;;;;;;20.02;9.77;;;;;;;-0.91;63.16;96127.09;5090560;27;20072;-69
2021/03/07 01:20:47;;;;;;;19.73;10.65;;;;;;;-0.96;63.45;96128.72;5090651;27;20062;-70
2021/03/07 01:23:14;;;;;;;13.20;9.48;;;;;;;-1.19;64.79;96135.19;5090559;27;20123;-69
2021/03/07 01:25:39;;;;;;;12.93;9.63;;;;;;;-1.00;64.21;96130.94;5089612;28;20051;-69
2021/03/07 01:28:06;;;;;;;16.10;9.52;;;;;;;-0.98;63.42;96121.06;5092538;28;20028;-69
2021/03/07 01:30:34;;;;;;;13.90;9.88;;;;;;;-0.97;63.34;96114.03;5071471;27;20082;-69
2021/03/07 01:33:01;;;;;;;15.43;9.98;;;;;;;-1.38;64.17;96078.66;5082030;28;20081;-69
2021/03/07 01:35:26;;;;;;;14.10;8.93;;;;;;;-1.00;64.11;96117.06;5090410;27;20032;-69
2021/03/07 01:37:52;;;;;;;28.10;9.98;;;;;;;-1.08;63.57;96098.00;5088761;28;20063;-69
2021/03/07 01:40:21;;;;;;;11.18;9.25;;;;;;;-1.02;63.98;96112.06;5089039;28;20035;-69
2021/03/07 01:42:52;;;;;;;13.15;9.18;;;;;;;-0.94;63.31;96113.63;5071783;28;20036;-69
2021/03/07 01:45:21;;;;;;;15.38;9.27;;;;;;;-1.00;62.77;96110.03;5086061;28;20048;-69
2021/03/07 01:47:50;;;;;;;15.07;10.27;;;;;;;-0.97;62.80;96111.41;5088566;28;20036;-69
2021/03/07 01:50:17;;;;;;;12.75;9.48;;;;;;;-1.01;64.12;96102.41;5081548;27;20039;-69
2021/03/07 01:52:43;;;;;;;13.70;10.23;;;;;;;-0.94;63.17;96105.78;5069757;28;20032;-69
2021/03/07 01:55:09;;;;;;;10.63;9.10;;;;;;;-0.97;63.75;96100.97;5071976;28;20466;-69
2021/03/07 01:57:37;;;;;;;12.65;10.02;;;;;;;-0.92;63.90;96095.94;5087565;28;20448;-69
2021/03/07 02:00:08;;;;;;;15.23;10.60;;;;;;;-1.00;63.91;96072.69;5090198;27;20128;-69
2021/03/07 02:02:34;;;;;;;16.00;10.90;;;;;;;-0.97;63.66;96091.34;5078399;27;20060;-69
2021/03/07 02:05:00;;;;;;;11.88;9.55;;;;;;;-1.10;63.80;96071.31;5069358;28;20032;-69
2021/03/07 02:07:25;;;;;;;18.05;11.82;;;;;;;-1.05;64.23;96075.91;5069553;28;20485;-69
2021/03/07 02:09:51;;;;;;;23.42;12.07;;;;;;;-1.00;64.50;96080.50;5092217;28;20351;-69
2021/03/07 02:12:22;;;;;;;14.23;11.23;;;;;;;-1.06;64.59;96072.50;5088352;28;20504;-69
2021/03/07 02:14:52;;;;;;;16.00;10.57;;;;;;;-1.01;64.47;96091.97;5089712;27;20044;-69
2021/03/07 02:17:18;;;;;;;13.82;10.65;;;;;;;-1.11;64.52;96085.38;5089219;27;20047;-70
2021/03/07 02:19:45;;;;;;;16.50;11.25;;;;;;;-1.13;64.72;96076.13;5088270;28;20124;-69
2021/03/07 02:22:18;;;;;;;15.20;11.65;;;;;;;-1.16;64.67;96079.19;5091445;28;20066;-70
2021/03/07 02:24:44;;;;;;;17.35;10.50;;;;;;;-1.23;65.22;96081.78;5090043;28;20044;-69
2021/03/07 02:27:09;;;;;;;14.35;10.90;;;;;;;-1.21;65.32;96090.22;5089164;27;20536;-68
2021/03/07 02:29:34;;;;;;;17.35;11.30;;;;;;;-1.39;65.68;96067.38;5089508;27;20093;-69
2021/03/07 02:32:06;;;;;;;15.23;10.90;;;;;;;-1.36;65.29;96072.22;5089401;27;20401;-70
2021/03/07 02:34:40;;;;;;;14.38;11.50;;;;;;;-1.31;65.49;96077.63;5089399;27;20020;-69
2021/03/07 02:37:12;;;;;;;14.60;10.52;;;;;;;-1.32;65.41;96083.06;5089512;28;20032;-69
2021/03/07 02:39:40;;;;;;;11.65;8.27;;;;;;;-1.36;65.35;96074.81;5069275;27;20101;-70
2021/03/07 02:42:11;;;;;;;19.70;11.30;;;;;;;-1.37;66.10;96081.06;5068896;28;20049;-70
2021/03/07 02:44:39;;;;;;;13.82;10.27;;;;;;;-1.46;65.51;96069.22;5069003;28;20040;-70
2021/03/07 02:47:06;;;;;;;16.42;11.15;;;;;;;-1.45;66.30;96064.81;5074439;28;20043;-70
2021/03/07 02:49:33;;;;;;;14.82;11.48;;;;;;;-1.54;65.84;96056.41;5085323;27;20016;-69
2021/03/07 02:52:02;;;;;;;15.15;11.02;;;;;;;-1.49;66.46;96066.22;5085841;28;20115;-70
2021/03/07 02:54:28;;;;;;;19.10;11.77;;;;;;;-1.68;66.08;96036.59;5103007;28;20177;-69
2021/03/07 02:56:55;;;;;;;14.48;10.50;;;;;;;-1.63;66.42;96045.41;5087202;28;20127;-70
2021/03/07 02:59:25;;;;;;;15.90;12.00;;;;;;;-1.58;66.68;96055.22;5087597;28;20028;-71
2021/03/07 03:01:57;;;;;;;18.20;11.43;;;;;;;-1.68;66.22;96047.03;5088680;27;20281;-70
2021/03/07 03:04:23;;;;;;;15.88;10.57;;;;;;;-1.61;66.06;96053.00;5103665;27;20134;-70
2021/03/07 03:06:51;;;;;;;14.13;11.48;;;;;;;-1.66;66.28;96040.59;5089742;28;20024;-70
2021/03/07 03:09:17;;;;;;;41.40;21.98;;;;;;;-1.59;65.99;96056.22;5089018;27;20038;-71
2021/03/07 03:11:43;;;;;;;23.80;15.88;;;;;;;-1.76;66.25;96028.97;5087347;28;20082;-70
2021/03/07 03:14:11;;;;;;;19.60;11.63;;;;;;;-1.67;67.02;96048.63;5088846;27;20438;-70
2021/03/07 03:16:38;;;;;;;22.70;13.45;;;;;;;-1.79;67.05;96027.59;5088615;27;20028;-70
2021/03/07 03:19:09;;;;;;;18.08;11.13;;;;;;;-1.74;67.16;96027.78;5090616;28;20035;-70
2021/03/07 03:21:34;;;;;;;19.15;11.75;;;;;;;-1.83;67.02;96023.78;5088278;28;20036;-70
2021/03/07 03:24:01;;;;;;;16.38;11.35;;;;;;;-1.74;67.00;96038.22;5088869;27;20701;-70
2021/03/07 03:26:26;;;;;;;15.77;11.27;;;;;;;-1.78;66.97;96029.19;5087191;28;20439;-69
2021/03/07 03:28:54;;;;;;;15.70;11.57;;;;;;;-1.82;67.13;96022.78;5083297;27;20116;-70
2021/03/07 03:31:20;;;;;;;15.25;11.48;;;;;;;-1.73;67.47;96036.41;5068943;28;20024;-70
2021/03/07 03:33:45;;;;;;;16.25;11.55;;;;;;;-1.79;67.43;96022.38;5089389;28;20024;-70
2021/03/07 03:36:12;;;;;;;15.23;10.45;;;;;;;-1.75;66.97;96027.97;5072395;27;20037;-70
2021/03/07 03:38:40;;;;;;;16.80;10.88;;;;;;;-1.88;67.11;96002.72;5066787;28;20441;-70
2021/03/07 03:41:09;;;;;;;14.32;10.32;;;;;;;-1.84;68.01;96007.34;5075600;28;20036;-69
2021/03/07 03:43:36;;;;;;;11.68;10.20;;;;;;;-1.70;67.72;96025.53;5088462;27;20490;-70
2021/03/07 03:46:05;;;;;;;13.05;10.23;;;;;;;-1.69;67.66;96027.97;5089261;28;20114;-70
2021/03/07 03:48:36;;;;;;;13.77;10.38;;;;;;;-1.76;67.52;96010.72;5088413;27;20040;-70
2021/03/07 03:51:03;;;;;;;14.60;10.90;;;;;;;-1.71;67.61;96022.13;5087152;28;20573;-70
2021/03/07 03:53:30;;;;;;;16.35;10.70;;;;;;;-1.80;67.63;96006.91;5088384;27;20481;-70
2021/03/07 03:55:58;;;;;;;15.68;11.23;;;;;;;-1.85;67.23;95999.69;5088469;28;20471;-70
2021/03/07 03:58:26;;;;;;;15.52;11.20;;;;;;;-1.93;68.09;95994.72;5087020;28;20024;-69
2021/03/07 04:00:54;;;;;;;15.68;11.13;;;;;;;-1.88;67.25;96002.72;5090547;28;20031;-70
2021/03/07 04:03:20;;;;;;;16.65;11.23;;;;;;;-1.89;67.73;96008.97;5088403;28;20668;-70
2021/03/07 04:05:47;;;;;;;15.55;11.75;;;;;;;-1.87;68.17;96012.94;5090842;28;20040;-70
2021/03/07 04:08:14;;;;;;;16.95;11.57;;;;;;;-1.89;68.25;96014.19;5090616;28;20036;-70
2021/03/07 04:10:42;;;;;;;22.20;12.15;;;;;;;-1.89;68.02;96022.00;5088380;27;20128;-70
2021/03/07 04:13:08;;;;;;;20.30;11.88;;;;;;;-1.93;67.86;96021.59;5072172;28;20398;-70
2021/03/07 04:15:34;;;;;;;16.08;11.57;;;;;;;-1.96;68.54;96014.16;5071798;28;20029;-69
2021/03/07 04:18:01;;;;;;;17.13;11.85;;;;;;;-1.98;67.70;96020.59;5071416;28;20044;-70
2021/03/07 04:20:28;;;;;;;14.52;11.20;;;;;;;-2.04;68.11;96021.44;5081673;28;20032;-70
2021/03/07 04:22:54;;;;;;;16.42;11.13;;;;;;;-2.10;68.18;96017.78;5091743;27;20653;-70
2021/03/07 04:25:21;;;;;;;12.98;9.95;;;;;;;-2.41;70.26;96026.25;5091840;28;20111;-69
2021/03/07 04:27:47;;;;;;;14.90;10.20;;;;;;;-2.44;70.34;96024.06;5093963;28;20358;-69
2021/03/07 04:30:13;;;;;;;14.57;10.70;;;;;;;-2.33;70.61;96013.03;5092059;28;20028;-70
2021/03/07 04:32:39;;;;;;;18.63;10.18;;;;;;;-2.25;69.77;96005.00;5091532;28;20032;-69
2021/03/07 04:35:06;;;;;;;14.52;11.07;;;;;;;-2.23;69.51;96013.41;5091682;27;20074;-70
2021/03/07 04:37:32;;;;;;;16.70;10.68;;;;;;;-2.16;69.59;96016.00;5091030;28;20493;-70
2021/03/07 04:39:57;;;;;;;14.38;9.95;;;;;;;-2.18;69.13;96005.00;5092247;28;20054;-70
2021/03/07 04:42:23;;;;;;;14.90;10.57;;;;;;;-2.11;68.96;96009.19;5073289;27;20039;-70
2021/03/07 04:44:48;;;;;;;13.27;10.50;;;;;;;-2.12;68.60;96002.38;5084334;28;20097;-70
2021/03/07 04:47:14;;;;;;;19.08;11.05;;;;;;;-2.07;68.07;96017.41;5091137;28;20127;-70
2021/03/07 04:49:40;;;;;;;19.55;10.30;;;;;;;-2.08;68.46;96004.59;5091389;28;20815;-70
2021/03/07 04:52:05;;;;;;;15.70;11.10;;;;;;;-2.15;68.93;96000.19;5093042;28;20024;-70
2021/03/07 04:54:31;;;;;;;16.55;12.30;;;;;;;-2.09;68.52;95995.97;5089827;28;20078;-70
2021/03/07 04:56:56;;;;;;;21.95;11.48;;;;;;;-2.20;68.13;95981.75;5090788;28;20036;-71
2021/03/07 04:59:21;;;;;;;15.30;11.13;;;;;;;-2.06;69.21;96000.75;5091214;28;20118;-70
2021/03/07 05:01:47;;;;;;;16.00;11.27;;;;;;;-2.17;68.96;95991.75;5090889;28;20032;-70
2021/03/07 05:04:12;;;;;;;19.30;11.55;;;;;;;-2.19;68.85;95977.34;5093172;28;20115;-70
2021/03/07 05:06:40;;;;;;;15.05;10.93;;;;;;;-2.15;68.91;95984.53;5089329;28;20051;-70
2021/03/07 05:09:06;;;;;;;16.08;11.93;;;;;;;-2.04;68.88;95996.16;5089518;28;20047;-71
2021/03/07 05:11:32;;;;;;;19.13;13.52;;;;;;;-2.08;69.29;95991.53;5090585;27;20966;-70
2021/03/07 05:13:57;;;;;;;21.75;13.10;;;;;;;-2.12;68.88;95981.50;5089612;28;20048;-70
2021/03/07 05:16:23;;;;;;;19.55;12.05;;;;;;;-2.08;68.58;95986.34;5090540;27;20031;-70
2021/03/07 05:18:48;;;;;;;16.80;12.18;;;;;;;-2.12;68.83;95984.13;5092500;28;20064;-71
2021/03/07 05:21:13;;;;;;;17.00;12.20;;;;;;;-2.16;69.32;95982.13;5073879;27;20060;-71
2021/03/07 05:23:39;;;;;;;16.88;11.85;;;;;;;-2.12;69.50;95986.72;5082160;28;20085;-70
2021/03/07 05:26:05;;;;;;;18.85;12.85;;;;;;;-2.11;69.34;95977.91;5090577;27;20032;-70
2021/03/07 05:28:30;;;;;;;19.13;12.20;;;;;;;-2.13;69.17;95969.50;5086776;27;20524;-70
2021/03/07 05:30:56;;;;;;;14.27;11.77;;;;;;;-2.02;68.97;95981.09;5071180;28;20161;-71
2021/03/07 05:33:21;;;;;;;17.83;12.73;;;;;;;-2.05;69.26;95980.69;5088059;28;20501;-71
2021/03/07 05:35:48;;;;;;;16.08;12.05;;;;;;;-2.05;69.32;95975.47;5090210;28;20131;-70
2021/03/07 05:38:14;;;;;;;19.05;12.02;;;;;;;-2.00;69.73;95983.50;5090237;27;20036;-69
2021/03/07 05:40:40;;;;;;;15.43;11.63;;;;;;;-1.98;69.41;95989.31;5086841;27;20119;-68
2021/03/07 05:43:06;;;;;;;17.50;11.90;;;;;;;-1.98;69.06;95987.50;5072110;28;20044;-69
2021/03/07 05:45:31;;;;;;;15.63;12.23;;;;;;;-1.94;69.04;95993.13;5087851;28;20044;-69
2021/03/07 05:47:57;;;;;;;18.30;12.07;;;;;;;-1.91;69.31;95987.50;5090241;28;20040;-70
2021/03/07 05:50:23;;;;;;;13.05;10.68;;;;;;;-1.86;69.13;95979.84;5090134;28;20044;-70
2021/03/07 05:52:51;;;;;;;13.70;10.50;;;;;;;-1.85;69.32;95984.06;5088442;28;20068;-69
2021/03/07 05:55:17;;;;;;;15.10;10.65;;;;;;;-1.91;69.08;95967.44;5089905;28;20024;-69
2021/03/07 05:57:47;;;;;;;14.05;11.80;;;;;;;-1.84;69.24;95972.66;5091480;28;20032;-69
2021/03/07 06:00:13;;;;;;;15.75;11.48;;;;;;;-1.77;69.37;95975.22;5089925;28;20071;-70
2021/03/07 06:02:39;;;;;;;15.43;10.88;;;;;;;-1.73;68.64;95974.59;5090292;28;20032;-71
2021/03/07 06:05:05;;;;;;;15.20;10.50;;;;;;;-1.78;68.71;95956.16;5088783;28;20038;-72
2021/03/07 06:07:30;;;;;;;15.02;10.48;;;;;;;-1.62;68.40;95979.19;5089747;27;20035;-71
2021/03/07 06:10:20;;;;;;;13.77;11.00;;;;;;;-1.64;68.75;95960.34;5093007;28;20412;-74
2021/03/07 06:13:02;;;;;;;16.17;10.45;;;;;;;-1.51;68.73;95979.53;5091862;28;20051;-73
2021/03/07 06:15:29;;;;;;;16.13;11.20;;;;;;;-1.54;68.20;95957.25;5091504;27;20119;-74
2021/03/07 06:17:54;;;;;;;16.20;11.55;;;;;;;-1.45;67.79;95965.66;5091784;28;20048;-75
2021/03/07 06:20:25;;;;;;;12.52;10.32;;;;;;;-1.38;68.05;95963.84;5091235;27;20040;-77
2021/03/07 06:23:00;;;;;;;16.33;10.75;;;;;;;-1.41;67.66;95945.97;5091356;27;20040;-76
2021/03/07 06:25:26;;;;;;;15.15;10.57;;;;;;;-1.29;67.75;95946.91;5090408;27;20436;-77
2021/03/07 06:27:53;;;;;;;14.50;11.00;;;;;;;-1.30;68.04;95932.25;5072962;28;20028;-77
2021/03/07 06:30:24;;;;;;;14.10;10.48;;;;;;;-1.11;67.67;95954.84;5087977;28;20560;-81
2021/03/07 06:32:58;;;;;;;13.45;10.48;;;;;;;-1.05;67.86;95953.97;5091721;28;20131;-78
2021/03/07 06:35:25;;;;;;;15.60;10.95;;;;;;;-0.97;67.48;95950.34;5092179;27;20036;-76
2021/03/07 06:37:55;;;;;;;13.52;11.00;;;;;;;-0.94;66.97;95943.88;5095166;27;20044;-79
2021/03/07 06:40:47;;;;;;;15.15;10.32;;;;;;;-0.79;67.65;95955.63;5096084;27;20054;-78
2021/03/07 06:43:27;;;;;;;12.68;11.00;;;;;;;-0.77;66.78;95936.31;5097495;28;20032;-78
2021/03/07 06:45:53;;;;;;;12.95;9.55;;;;;;;-0.92;66.53;95905.28;5097067;28;20062;-77
2021/03/07 06:48:19;;;;;;;13.93;10.85;;;;;;;-0.62;66.52;95940.19;5091907;28;20039;-77
2021/03/07 06:50:54;;;;;;;11.80;9.95;;;;;;;-0.43;66.81;95967.19;5078616;27;20037;-78
2021/03/07 06:53:34;;;;;;;10.52;9.10;;;;;;;-0.34;66.33;95959.88;5078602;28;20482;-77
2021/03/07 06:55:59;;;;;;;12.88;9.75;;;;;;;-0.35;66.11;95947.84;5084703;27;20033;-78
2021/03/07 06:58:25;;;;;;;12.68;9.20;;;;;;;-0.14;65.84;95955.28;5071230;28;20032;-78
2021/03/07 07:00:50;;;;;;;10.98;9.40;;;;;;;-0.07;65.60;95949.97;5092135;28;20109;-78
2021/03/07 07:03:17;;;;;;;10.65;9.13;;;;;;;-0.03;65.42;95946.69;5091082;27;20383;-78
2021/03/07 07:05:47;;;;;;;11.77;10.13;;;;;;;0.20;65.13;95953.09;5091013;27;20033;-79
2021/03/07 07:08:15;;;;;;;12.65;10.13;;;;;;;0.30;64.84;95958.59;5091133;27;20658;-77
2021/03/07 07:11:06;;;;;;;10.77;9.68;;;;;;;0.39;64.73;95948.66;5087314;27;20089;-79
2021/03/07 07:13:45;;;;;;;12.35;11.00;;;;;;;0.43;64.54;95932.28;5073420;28;20073;-79
2021/03/07 07:16:11;;;;;;;14.70;10.55;;;;;;;0.45;64.66;95927.63;5093222;28;20217;-77
2021/03/07 07:18:39;;;;;;;15.98;10.80;;;;;;;0.59;64.50;95930.88;5091623;27;20048;-79
2021/03/07 07:21:08;;;;;;;11.90;10.55;;;;;;;0.72;64.46;95929.94;5091327;28;20545;-78
2021/03/07 07:23:34;;;;;;;15.43;11.50;;;;;;;0.92;64.29;95934.84;5091559;28;20041;-78
2021/03/07 07:26:00;;;;;;;13.80;11.45;;;;;;;0.92;64.27;95927.00;5091743;28;20498;-77
2021/03/07 07:28:26;;;;;;;13.82;12.40;;;;;;;1.03;63.96;95931.50;5090531;28;20105;-78
2021/03/07 07:31:17;;;;;;;12.93;11.60;;;;;;;1.18;64.06;95931.09;5092956;28;20074;-77
2021/03/07 07:33:54;;;;;;;12.52;11.23;;;;;;;1.30;64.07;95932.69;5080966;28;20123;-78
2021/03/07 07:36:28;;;;;;;16.50;12.23;;;;;;;1.39;63.62;95938.41;5090539;27;20126;-78
2021/03/07 07:38:56;;;;;;;13.40;11.57;;;;;;;1.49;63.79;95937.84;5090222;28;20076;-78
2021/03/07 07:41:34;;;;;;;13.68;11.82;;;;;;;1.58;63.83;95935.66;5093867;28;20040;-78
2021/03/07 07:44:01;;;;;;;16.27;12.80;;;;;;;1.65;63.84;95924.06;5093585;28;20044;-79
2021/03/07 07:46:27;;;;;;;18.17;12.30;;;;;;;1.77;63.86;95934.53;5092801;27;20059;-78
2021/03/07 07:48:53;;;;;;;16.60;13.30;;;;;;;1.85;63.78;95926.34;5076150;28;20072;-78
2021/03/07 07:51:38;;;;;;;13.82;12.43;;;;;;;1.98;63.74;95930.53;5073976;28;20581;-78
2021/03/07 07:54:06;;;;;;;14.15;12.55;;;;;;;2.05;62.99;95918.91;5074351;28;20044;-73
2021/03/07 07:56:34;;;;;;;14.27;12.73;;;;;;;2.13;62.79;95912.47;5074426;28;20044;-80
2021/03/07 07:58:59;;;;;;;14.45;12.52;;;;;;;2.31;63.22;95927.28;5074756;28;20036;-78
2021/03/07 08:02:00;;;;;;;16.70;14.02;;;;;;;2.37;62.48;95909.81;5074324;28;20035;-75
2021/03/07 08:04:28;;;;;;;15.40;13.63;;;;;;;2.52;62.69;95928.47;5069411;28;20116;-80
2021/03/07 08:06:57;;;;;;;15.73;13.20;;;;;;;2.31;62.29;95869.53;5065978;28;20029;-76
2021/03/07 08:09:41;;;;;;;15.68;13.40;;;;;;;2.44;61.91;95921.75;5073499;28;20044;-76
2021/03/07 08:12:43;;;;;;;16.58;13.95;;;;;;;2.75;62.44;95917.06;5073624;28;20041;-77
2021/03/07 08:15:24;;;;;;;16.53;13.33;;;;;;;2.94;62.15;95915.84;5090028;28;20040;-73
2021/03/07 08:18:00;;;;;;;14.77;13.23;;;;;;;2.93;61.97;95892.44;5092376;28;20052;-74
2021/03/07 08:20:37;;;;;;;15.15;13.43;;;;;;;3.16;61.81;95915.16;5091497;28;20036;-72
2021/03/07 08:23:04;;;;;;;15.13;13.52;;;;;;;2.76;62.03;95890.56;5093101;27;20040;-70
2021/03/07 08:25:50;;;;;;;20.20;13.95;;;;;;;2.59;63.50;95908.91;5093146;27;20031;-75
2021/03/07 08:28:28;;;;;;;16.38;14.00;;;;;;;3.12;62.71;95910.41;5087709;27;20028;-80
2021/03/07 08:31:09;;;;;;;22.95;13.60;;;;;;;3.00;62.64;95886.00;5075095;28;20501;-83
2021/03/07 08:33:35;;;;;;;16.30;13.55;;;;;;;3.29;62.18;95883.31;5070032;28;20041;-69
2021/03/07 08:36:13;;;;;;;15.65;12.43;;;;;;;3.26;61.56;95894.28;5087544;28;20701;-76
2021/03/07 08:38:51;;;;;;;15.15;12.95;;;;;;;3.46;61.31;95897.25;5092919;28;20047;-76
2021/03/07 08:41:21;;;;;;;16.90;13.93;;;;;;;3.69;61.23;95885.75;5093260;28;20097;-71
2021/03/07 08:43:55;;;;;;;15.88;13.43;;;;;;;3.94;60.87;95898.44;5092909;28;20486;-74
2021/03/07 08:46:22;;;;;;;13.60;11.80;;;;;;;4.08;60.03;95894.41;5089991;28;20048;-79
2021/03/07 08:48:51;;;;;;;14.95;12.38;;;;;;;4.20;60.01;95891.69;5094565;28;20024;-77
2021/03/07 08:51:27;;;;;;;14.88;12.02;;;;;;;4.25;59.55;95872.50;5074778;28;20505;-74
2021/03/07 08:53:59;;;;;;;13.25;11.93;;;;;;;4.41;58.80;95872.44;5086482;28;20119;-72
2021/03/07 08:56:25;;;;;;;14.00;12.48;;;;;;;4.33;58.79;95840.47;5082774;28;20044;-74
2021/03/07 08:58:51;;;;;;;14.75;13.00;;;;;;;4.53;58.46;95839.88;5077336;28;20032;-73
2021/03/07 09:01:17;;;;;;;14.40;12.00;;;;;;;4.70;58.28;95846.63;5092280;27;20024;-76
2021/03/07 09:03:51;;;;;;;13.93;11.85;;;;;;;4.91;58.08;95860.00;5094765;28;20355;-74
2021/03/07 09:06:17;;;;;;;12.75;11.38;;;;;;;4.27;58.48;95850.16;5075177;27;20082;-75
2021/03/07 09:08:42;;;;;;;13.77;11.35;;;;;;;3.96;59.40;95864.00;5084341;28;20109;-74
2021/03/07 09:11:09;;;;;;;13.18;11.25;;;;;;;3.95;60.26;95859.78;5091050;28;20600;-74
2021/03/07 09:13:49;;;;;;;12.45;11.25;;;;;;;4.24;59.26;95836.66;5092386;27;20028;-76
2021/03/07 09:16:16;;;;;;;13.15;10.93;;;;;;;4.11;59.89;95854.44;5092096;27;20393;-71
2021/03/07 09:18:42;;;;;;;11.98;10.75;;;;;;;4.24;59.59;95853.25;5093872;28;20040;-72
2021/03/07 09:21:11;;;;;;;12.52;11.27;;;;;;;4.02;59.96;95855.91;5075918;27;20043;-73
2021/03/07 09:23:39;;;;;;;12.43;11.20;;;;;;;4.51;59.04;95863.84;5082907;28;20043;-72
2021/03/07 09:26:16;;;;;;;17.27;11.60;;;;;;;4.19;60.34;95855.84;5091844;27;20051;-71
2021/03/07 09:28:52;;;;;;;13.18;11.88;;;;;;;4.86;58.82;95834.44;5090104;28;20071;-72
2021/03/07 09:31:23;;;;;;;12.63;11.32;;;;;;;5.26;58.29;95841.06;5089783;27;20058;-74
2021/03/07 09:33:53;;;;;;;12.77;11.48;;;;;;;5.47;57.93;95841.97;5072311;28;20028;-75
2021/03/07 09:36:23;;;;;;;13.55;10.93;;;;;;;4.69;58.86;95792.34;5067122;28;20032;-73
2021/03/07 09:38:53;;;;;;;13.43;11.30;;;;;;;5.12;59.23;95832.78;5083389;28;20101;-75
2021/03/07 09:41:36;;;;;;;12.93;11.55;;;;;;;4.75;60.55;95829.28;5090296;28;20033;-75
2021/03/07 09:44:04;;;;;;;14.07;12.18;;;;;;;4.55;60.62;95787.72;5091866;27;20036;-75
2021/03/07 09:46:31;;;;;;;13.05;11.68;;;;;;;4.73;61.82;95815.56;5089681;27;20019;-76
2021/03/07 09:49:03;;;;;;;12.93;11.30;;;;;;;4.84;61.10;95818.03;5073530;28;20075;-76
2021/03/07 09:51:29;;;;;;;;;;;;;;;5.10;60.16;95816.41;5106227;28;20429;-76
2021/03/07 09:53:55;;;;;;;13.75;12.27;;;;;;;6.13;59.04;95786.13;5078082;27;20088;-76
2021/03/07 09:56:23;;;;;;;14.77;10.95;;;;;;;6.83;55.20;95800.53;5080925;28;20509;-77
2021/03/07 09:58:48;;;;;;;15.00;11.50;;;;;;;6.48;55.49;95769.56;5091503;27;20040;-76
2021/03/07 10:01:14;;;;;;;13.02;11.73;;;;;;;6.88;54.44;95792.59;5092350;27;20026;-63
2021/03/07 10:03:39;;;;;;;13.35;11.10;;;;;;;6.66;55.13;95782.28;5092557;28;20059;-77
2021/03/07 10:06:17;;;;;;;12.57;10.95;;;;;;;6.03;57.26;95794.78;5076221;27;20056;-77
2021/03/07 10:08:44;;;;;;;12.68;11.38;;;;;;;6.28;56.24;95774.78;5082763;28;20040;-69
2021/03/07 10:11:19;;;;;;;14.10;12.68;;;;;;;6.41;56.50;95776.94;5091663;27;20077;-78
2021/03/07 10:13:56;;;;;;;12.73;11.52;;;;;;;6.89;55.13;95774.88;5090896;27;20072;-75
2021/03/07 10:16:24;;;;;;;12.25;11.05;;;;;;;6.83;55.22;95776.72;5091052;27;20024;-74
2021/03/07 10:19:04;;;;;;;12.35;11.05;;;;;;;6.32;56.21;95776.66;5092400;28;20036;-76
2021/03/07 10:21:31;;;;;;;12.13;10.88;;;;;;;6.02;57.10;95772.09;5090240;28;20052;-75
2021/03/07 10:24:06;;;;;;;13.73;11.70;;;;;;;6.16;57.43;95775.03;5090993;28;20557;-75
2021/03/07 10:26:32;;;;;;;13.77;11.55;;;;;;;6.74;56.05;95770.38;5090953;27;20036;-74
2021/03/07 10:28:58;;;;;;;12.93;11.73;;;;;;;6.93;55.09;95760.88;5090655;27;20047;-75
2021/03/07 10:31:25;;;;;;;14.07;11.80;;;;;;;6.58;55.83;95726.50;5090798;28;20031;-84
2021/03/07 10:33:53;;;;;;;13.00;11.43;;;;;;;7.35;53.74;95737.78;5092812;28;20016;-74
2021/03/07 10:36:20;;;;;;;11.85;10.75;;;;;;;8.05;52.99;95752.63;5090645;27;20032;-75
2021/03/07 10:39:08;;;;;;;12.57;11.27;;;;;;;8.11;51.41;95744.66;5089716;28;20036;-77
2021/03/07 10:41:33;;;;;;;12.02;10.75;;;;;;;7.65;52.70;95755.44;5086112;28;20051;-80
2021/03/07 10:44:08;;;;;;;12.65;11.35;;;;;;;8.34;52.22;95755.41;5089728;28;20036;-74
2021/03/07 10:46:41;;;;;;;13.13;11.25;;;;;;;8.95;50.60;95756.06;5089964;28;20024;-77
2021/03/07 10:49:09;;;;;;;14.43;11.05;;;;;;;8.93;49.52;95747.59;5092935;28;20085;-79
2021/03/07 10:51:35;;;;;;;12.98;10.95;;;;;;;9.29;49.66;95748.84;5090275;28;20028;-75
2021/03/07 10:54:01;;;;;;;15.63;11.43;;;;;;;8.75;50.69;95744.56;5090793;28;20052;-75
2021/03/07 10:56:30;;;;;;;12.88;11.55;;;;;;;9.29;49.52;95732.16;5090468;27;20086;-74
2021/03/07 10:58:56;;;;;;;12.60;11.50;;;;;;;9.57;48.68;95741.13;5088495;28;20083;-81
2021/03/07 11:01:22;;;;;;;12.27;11.07;;;;;;;9.06;49.71;95723.88;5089859;27;20085;-75
2021/03/07 11:03:47;;;;;;;14.35;12.13;;;;;;;8.38;51.92;95721.22;5092554;28;20031;-75
2021/03/07 11:06:12;;;;;;;12.45;11.15;;;;;;;9.11;50.88;95733.66;5089986;27;20042;-70
2021/03/07 11:08:38;;;;;;;13.50;12.23;;;;;;;8.90;50.95;95734.88;5088360;28;20447;-74
2021/03/07 11:11:05;;;;;;;12.73;11.50;;;;;;;9.14;49.32;95726.97;5083216;27;20491;-75
2021/03/07 11:13:30;;;;;;;13.20;11.75;;;;;;;10.61;47.49;95727.09;5069619;28;20024;-76
2021/03/07 11:15:56;;;;;;;13.77;12.32;;;;;;;10.18;48.08;95723.66;5071740;28;20089;-75
2021/03/07 11:18:21;;;;;;;12.38;11.18;;;;;;;10.61;46.55;95714.56;5069164;28;20502;-75
2021/03/07 11:20:48;;;;;;;12.90;11.60;;;;;;;10.08;47.11;95708.63;5082040;28;20044;-74
2021/03/07 11:23:13;;;;;;;13.15;11.45;;;;;;;10.62;47.08;95696.72;5080698;27;20029;-74
2021/03/07 11:25:39;;;;;;;13.73;11.27;;;;;;;10.81;46.77;95715.34;5073171;28;20040;-75
2021/03/07 11:28:05;;;;;;;13.13;11.82;;;;;;;10.72;45.50;95691.25;5090469;28;20035;-74